Time;durP1;ratioP1;P1;durP2;ratioP2;P2;SDS_P1;SDS_P2;PMS_P1;PMS_P2;Temp;Humidity;BMP_temperature;BMP_pressure;BME280_temperature;BME280_humidity;BME280_pressure;Samples;Min_cycle;Max_cycle;Signal;HPM_P1;HPM_P2
2023/09/14 00:01:24;;;;;;;2.40;1.08;;;22.30;57.90;;;;;;2181560;59;21080;-69
2023/09/14 00:03:51;;;;;;;2.08;0.95;;;22.20;57.80;;;;;;2181972;59;21036;-70
2023/09/14 00:06:17;;;;;;;2.78;1.12;;;22.20;57.70;;;;;;2183071;59;21316;-68
2023/09/14 00:08:44;;;;;;;2.60;1.33;;;22.20;57.60;;;;;;2182904;59;20961;-68
2023/09/14 00:11:14;;;;;;;2.80;1.15;;;22.10;57.50;;;;;;2394922;58;21392;-68
2023/09/14 00:13:41;;;;;;;2.15;1.02;;;22.10;57.60;;;;;;2367920;58;21037;-71
2023/09/14 00:16:08;;;;;;;2.47;0.95;;;22.00;57.50;;;;;;2184019;59;21033;-67
2023/09/14 00:18:34;;;;;;;2.47;1.35;;;22.00;57.50;;;;;;2184268;59;20982;-67
2023/09/14 00:21:01;;;;;;;3.87;1.30;;;22.00;57.50;;;;;;2183687;59;21529;-69
2023/09/14 00:23:28;;;;;;;4.28;1.10;;;21.90;57.50;;;;;;2395413;58;21222;-68
2023/09/14 00:25:55;;;;;;;3.03;1.10;;;21.90;57.50;;;;;;2394477;58;20942;-70
2023/09/14 00:28:21;;;;;;;2.70;1.20;;;21.90;57.50;;;;;;2184220;59;21407;-67
2023/09/14 00:30:51;;;;;;;2.37;1.10;;;21.80;57.50;;;;;;2160310;59;21278;-68
2023/09/14 00:33:17;;;;;;;2.12;0.98;;;21.80;57.70;;;;;;2155589;58;21109;-69
2023/09/14 00:35:47;;;;;;;2.50;1.30;;;21.70;57.60;;;;;;2148099;60;21572;-69
2023/09/14 00:38:14;;;;;;;4.18;1.25;;;21.70;57.70;;;;;;2373842;58;20953;-68
2023/09/14 00:40:41;;;;;;;2.25;1.00;;;21.70;57.70;;;;;;2369082;58;21800;-67
2023/09/14 00:43:08;;;;;;;1.90;0.90;;;21.60;57.60;;;;;;2392300;58;20992;-69
2023/09/14 00:45:34;;;;;;;2.67;0.98;;;21.50;57.50;;;;;;2181796;59;20966;-68
2023/09/14 00:48:02;;;;;;;2.45;1.10;;;21.50;57.60;;;;;;2393241;58;21017;-67
2023/09/14 00:50:39;;;;;;;2.15;0.90;;;21.40;57.50;;;;;;2161096;59;20998;-66
2023/09/14 00:53:09;;;;;;;2.60;1.17;;;21.40;57.80;;;;;;2393630;58;21054;-69
2023/09/14 00:55:36;;;;;;;2.45;1.00;;;21.40;57.80;;;;;;2394031;58;21013;-69
2023/09/14 00:58:03;;;;;;;3.72;1.20;;;21.30;57.90;;;;;;2161587;59;21017;-70
2023/09/14 01:00:31;;;;;;;2.30;1.00;;;21.30;58.00;;;;;;2181463;59;21968;-68
2023/09/14 01:02:58;;;;;;;3.33;1.12;;;21.30;58.20;;;;;;2393411;58;21057;-68
2023/09/14 01:05:30;;;;;;;2.10;1.00;;;21.20;58.30;;;;;;2181623;59;21602;-69
2023/09/14 01:07:56;;;;;;;3.05;1.50;;;21.20;58.30;;;;;;2393862;58;21092;-68
2023/09/14 01:10:24;;;;;;;2.78;1.20;;;21.20;58.30;;;;;;2393449;58;20966;-68
2023/09/14 01:12:51;;;;;;;2.90;1.00;;;21.20;58.50;;;;;;2394035;58;20958;-69
2023/09/14 01:15:43;;;;;;;2.83;1.02;;;21.20;58.60;;;;;;2377038;58;20976;-69
2023/09/14 01:18:16;;;;;;;2.22;1.02;;;21.20;58.70;;;;;;2176786;59;20977;-68
2023/09/14 01:21:15;;;;;;;2.90;0.90;;;21.20;58.60;;;;;;2181262;59;21046;-69
2023/09/14 01:30:31;;;;;;;2.70;1.12;;;21.20;58.60;;;;;;2393193;58;20989;-69
2023/09/14 01:32:58;;;;;;;2.67;0.88;;;21.20;58.30;;;;;;2182006;59;21029;-68
2023/09/14 01:35:26;;;;;;;2.65;1.20;;;21.20;58.00;;;;;;2181445;59;20965;-66
2023/09/14 01:37:54;;;;;;;2.58;1.12;;;21.20;58.10;;;;;;2181964;59;21644;-68
2023/09/14 01:40:22;;;;;;;3.78;1.35;;;21.10;58.20;;;;;;2394317;58;21009;-70
2023/09/14 01:42:50;;;;;;;2.95;1.30;;;21.00;58.30;;;;;;2181862;59;21045;-69
2023/09/14 01:45:16;;;;;;;2.58;1.20;;;21.10;58.40;;;;;;2394132;58;21599;-69
2023/09/14 01:47:46;;;;;;;2.75;1.17;;;21.00;58.40;;;;;;2173626;59;21023;-68
2023/09/14 01:50:15;;;;;;;2.37;1.20;;;21.00;58.40;;;;;;2172612;59;21080;-69
2023/09/14 01:52:42;;;;;;;3.10;1.20;;;21.00;58.30;;;;;;2181927;59;21041;-69
2023/09/14 01:55:10;;;;;;;3.47;1.50;;;21.00;58.30;;;;;;2394907;58;20977;-69
2023/09/14 01:57:36;;;;;;;2.40;1.20;;;20.90;58.30;;;;;;2394739;58;21565;-68
2023/09/14 02:00:03;;;;;;;2.62;1.17;;;20.90;58.30;;;;;;2394322;58;21740;-69
2023/09/14 02:02:29;;;;;;;5.15;1.50;;;20.90;58.30;;;;;;2394129;58;21049;-69
2023/09/14 02:04:56;;;;;;;2.92;1.10;;;20.90;58.30;;;;;;2394486;58;21027;-67
2023/09/14 02:07:23;;;;;;;5.40;1.30;;;20.80;58.20;;;;;;2367978;58;20991;-69
2023/09/14 02:09:51;;;;;;;3.22;1.40;;;20.80;58.30;;;;;;2365767;58;21005;-67
2023/09/14 02:12:17;;;;;;;2.30;1.10;;;20.80;58.40;;;;;;2394688;58;21053;-70
2023/09/14 02:14:47;;;;;;;2.92;1.27;;;20.80;58.40;;;;;;2181583;59;20977;-69
2023/09/14 02:17:16;;;;;;;2.30;1.20;;;20.70;58.30;;;;;;2171481;59;21031;-70
2023/09/14 02:19:43;;;;;;;2.37;1.17;;;20.70;58.30;;;;;;2171956;59;21053;-69
2023/09/14 02:22:12;;;;;;;3.83;1.30;;;20.70;58.20;;;;;;2173889;59;20987;-68
2023/09/14 02:24:39;;;;;;;2.35;1.02;;;20.70;58.30;;;;;;2380814;58;21870;-68
2023/09/14 02:27:09;;;;;;;2.70;1.12;;;20.60;58.20;;;;;;2182333;59;20978;-68
2023/09/14 02:29:38;;;;;;;2.10;1.05;;;20.60;58.20;;;;;;2394146;58;21737;-69
2023/09/14 02:32:07;;;;;;;2.75;1.00;;;20.60;58.30;;;;;;2394593;58;20987;-69
2023/09/14 02:34:34;;;;;;;2.97;1.30;;;20.50;58.20;;;;;;2394184;58;20961;-68
2023/09/14 02:37:02;;;;;;;2.20;0.90;;;20.50;58.10;;;;;;2393690;58;20973;-69
2023/09/14 02:39:28;;;;;;;2.45;1.27;;;20.50;58.10;;;;;;2393540;58;20989;-70
2023/09/14 02:41:55;;;;;;;2.42;1.10;;;20.40;58.10;;;;;;2394153;58;21428;-68
2023/09/14 02:44:21;;;;;;;3.37;1.00;;;20.40;58.20;;;;;;2394912;58;20994;-68
2023/09/14 02:46:48;;;;;;;5.60;1.30;;;20.30;58.00;;;;;;2160611;59;21684;-67
2023/09/14 02:49:15;;;;;;;3.90;1.40;;;20.30;58.10;;;;;;2181818;59;21562;-68
2023/09/14 02:51:42;;;;;;;3.08;1.52;;;20.30;58.30;;;;;;2179042;59;20986;-68
2023/09/14 02:54:10;;;;;;;2.87;1.48;;;20.20;58.40;;;;;;2373399;58;21837;-69
2023/09/14 02:56:36;;;;;;;3.42;1.50;;;20.20;58.50;;;;;;2382258;58;20970;-69
2023/09/14 02:59:03;;;;;;;2.70;1.58;;;20.20;58.60;;;;;;2359350;58;21637;-69
2023/09/14 03:01:31;;;;;;;4.28;1.37;;;20.20;58.70;;;;;;2384821;58;20948;-71
2023/09/14 03:04:00;;;;;;;3.17;1.50;;;20.20;58.70;;;;;;2181202;59;21835;-68
2023/09/14 03:06:29;;;;;;;2.97;1.25;;;20.20;58.80;;;;;;2181932;59;21065;-68
2023/09/14 03:08:55;;;;;;;3.92;1.23;;;20.20;58.70;;;;;;2393903;58;20978;-70
2023/09/14 03:11:22;;;;;;;2.30;1.17;;;20.10;58.60;;;;;;2166251;59;21014;-68
2023/09/14 03:13:48;;;;;;;3.33;1.33;;;20.10;58.60;;;;;;2174064;59;21015;-69
2023/09/14 03:16:15;;;;;;;2.72;1.20;;;20.10;58.50;;;;;;2164905;59;20965;-68
2023/09/14 03:18:41;;;;;;;3.55;1.30;;;20.10;58.50;;;;;;2154799;59;21189;-68
2023/09/14 03:21:21;;;;;;;5.15;1.50;;;20.10;58.50;;;;;;2362421;58;20960;-68
2023/09/14 03:23:48;;;;;;;2.95;1.52;;;20.00;59.00;;;;;;2156766;59;20976;-69
2023/09/14 03:26:15;;;;;;;5.57;1.60;;;20.00;58.70;;;;;;2158586;59;20976;-68
2023/09/14 03:28:41;;;;;;;2.87;1.60;;;20.00;58.80;;;;;;2329161;58;21012;-68
2023/09/14 03:31:09;;;;;;;3.65;2.08;;;20.00;58.90;;;;;;2366016;58;21022;-68
2023/09/14 03:33:37;;;;;;;4.72;2.45;;;20.00;59.00;;;;;;2363958;58;21035;-68
2023/09/14 03:36:03;;;;;;;5.12;2.12;;;20.00;59.30;;;;;;2155517;59;21029;-68
2023/09/14 03:38:29;;;;;;;4.60;2.72;;;20.00;59.40;;;;;;2158376;59;20987;-70
2023/09/14 03:40:56;;;;;;;4.90;2.97;;;20.00;59.60;;;;;;2157958;59;21939;-68
2023/09/14 03:43:22;;;;;;;3.83;2.30;;;20.00;59.70;;;;;;2158287;59;20949;-69
2023/09/14 03:45:50;;;;;;;3.53;2.22;;;20.00;59.80;;;;;;2360723;58;20995;-68
2023/09/14 03:48:17;;;;;;;4.32;2.10;;;20.00;60.00;;;;;;2365997;58;21433;-70
2023/09/14 03:50:43;;;;;;;4.78;2.37;;;20.00;60.00;;;;;;2361272;58;21089;-70
2023/09/14 03:53:10;;;;;;;4.20;2.10;;;20.00;60.10;;;;;;2360392;58;21029;-71
2023/09/14 03:55:39;;;;;;;5.50;2.17;;;20.00;60.20;;;;;;2155040;59;21091;-70
2023/09/14 03:58:05;;;;;;;3.85;2.20;;;20.00;60.40;;;;;;2335684;58;21568;-71
2023/09/14 04:00:32;;;;;;;4.00;2.17;;;20.10;60.50;;;;;;2363668;58;21120;-69
2023/09/14 04:02:58;;;;;;;4.75;1.67;;;20.10;60.40;;;;;;2350573;58;21130;-70
2023/09/14 04:05:25;;;;;;;3.72;1.75;;;20.10;60.20;;;;;;2340256;58;21005;-69
2023/09/14 04:07:51;;;;;;;4.05;2.00;;;20.10;60.10;;;;;;2366535;58;20987;-71
2023/09/14 04:10:18;;;;;;;3.67;2.08;;;20.10;60.20;;;;;;2161241;59;21057;-70
2023/09/14 04:12:45;;;;;;;6.37;2.28;;;20.20;60.30;;;;;;2153472;59;21045;-70
2023/09/14 04:15:12;;;;;;;4.03;2.25;;;20.20;60.30;;;;;;2364934;58;20956;-68
2023/09/14 04:17:41;;;;;;;4.32;2.55;;;20.20;60.30;;;;;;2366395;58;21051;-67
2023/09/14 04:20:11;;;;;;;6.82;2.75;;;20.20;60.50;;;;;;2361676;58;21053;-70
2023/09/14 04:22:37;;;;;;;5.28;2.35;;;20.30;60.60;;;;;;2156569;60;21024;-69
2023/09/14 04:25:06;;;;;;;3.60;1.90;;;20.30;60.60;;;;;;2159274;59;21028;-68
2023/09/14 04:27:33;;;;;;;3.90;2.45;;;20.30;60.60;;;;;;2366294;58;21041;-68
2023/09/14 04:30:02;;;;;;;4.43;2.42;;;20.30;60.60;;;;;;2366477;58;21079;-67
2023/09/14 04:32:28;;;;;;;5.55;2.62;;;20.40;60.70;;;;;;2160460;59;21037;-67
2023/09/14 04:34:55;;;;;;;4.78;2.55;;;20.40;60.70;;;;;;2153821;59;21470;-70
2023/09/14 04:37:22;;;;;;;4.32;2.35;;;20.40;60.80;;;;;;2159602;59;20944;-68
2023/09/14 04:39:52;;;;;;;4.47;2.55;;;20.40;60.70;;;;;;2383499;58;21079;-68
2023/09/14 04:42:18;;;;;;;4.28;2.60;;;20.40;60.80;;;;;;2183073;58;21766;-68
2023/09/14 04:44:49;;;;;;;3.70;2.12;;;20.50;60.80;;;;;;2395104;58;21377;-67
2023/09/14 04:47:16;;;;;;;4.45;2.67;;;20.50;60.70;;;;;;2183609;59;21656;-67
2023/09/14 04:49:43;;;;;;;4.62;2.83;;;20.50;60.70;;;;;;2183109;58;21055;-69
2023/09/14 04:52:11;;;;;;;4.80;2.97;;;20.50;60.70;;;;;;2181820;59;21133;-68
2023/09/14 04:54:40;;;;;;;4.37;2.63;;;20.50;60.70;;;;;;2395313;58;21056;-68
2023/09/14 04:57:10;;;;;;;4.95;2.75;;;20.60;60.80;;;;;;2395153;58;21087;-68
2023/09/14 04:59:36;;;;;;;4.20;2.42;;;20.60;60.80;;;;;;2183422;58;21001;-67
2023/09/14 05:02:03;;;;;;;4.25;2.37;;;20.60;60.60;;;;;;2183468;58;20960;-71
2023/09/14 05:04:31;;;;;;;4.80;2.30;;;20.60;60.50;;;;;;2179758;58;21057;-68
2023/09/14 05:06:57;;;;;;;3.97;2.03;;;20.60;60.50;;;;;;2377331;58;21005;-68
2023/09/14 05:09:26;;;;;;;5.22;2.20;;;20.60;60.50;;;;;;2181891;59;21573;-69
2023/09/14 05:11:52;;;;;;;4.68;2.60;;;20.70;60.60;;;;;;2150283;59;21007;-70
2023/09/14 05:14:19;;;;;;;5.25;2.72;;;20.60;60.50;;;;;;2395611;58;20979;-68
2023/09/14 05:16:50;;;;;;;4.60;2.37;;;20.60;60.50;;;;;;2395337;58;21018;-67
2023/09/14 05:19:17;;;;;;;3.97;2.22;;;20.60;60.50;;;;;;2183719;58;21012;-67
2023/09/14 05:21:44;;;;;;;5.15;2.45;;;20.50;60.30;;;;;;2395310;58;21062;-69
2023/09/14 05:24:11;;;;;;;3.40;2.00;;;20.60;60.30;;;;;;2394971;58;20947;-70
2023/09/14 05:26:37;;;;;;;3.75;2.22;;;20.60;60.40;;;;;;2183369;58;20954;-67
2023/09/14 05:29:06;;;;;;;3.72;2.00;;;20.70;60.50;;;;;;2394566;58;20967;-70
2023/09/14 05:31:34;;;;;;;4.07;2.60;;;20.70;60.60;;;;;;2182969;58;20987;-68
2023/09/14 05:34:00;;;;;;;4.32;2.65;;;20.70;60.60;;;;;;2393132;58;21028;-67
2023/09/14 05:36:27;;;;;;;4.60;2.35;;;20.70;60.60;;;;;;2183599;58;21011;-67
2023/09/14 05:38:56;;;;;;;4.35;2.83;;;20.70;60.50;;;;;;2393402;58;21016;-68
2023/09/14 05:41:22;;;;;;;3.42;2.10;;;20.70;60.50;;;;;;2159664;59;21064;-68
2023/09/14 05:43:48;;;;;;;4.25;2.60;;;20.70;60.50;;;;;;2136332;59;20986;-70
2023/09/14 05:46:15;;;;;;;4.72;2.80;;;20.70;60.50;;;;;;2358934;58;21069;-67
2023/09/14 05:48:42;;;;;;;7.18;3.25;;;20.70;60.50;;;;;;2353639;58;21043;-69
2023/09/14 05:51:08;;;;;;;4.90;3.08;;;20.70;60.60;;;;;;2153584;59;21069;-71
2023/09/14 05:53:35;;;;;;;5.47;2.83;;;20.70;60.70;;;;;;2156871;59;21729;-68
2023/09/14 05:56:02;;;;;;;4.97;2.97;;;20.70;60.70;;;;;;2365400;58;21011;-69
2023/09/14 05:58:28;;;;;;;3.92;2.45;;;20.70;60.70;;;;;;2359744;58;20977;-68
2023/09/14 06:01:00;;;;;;;6.03;3.45;;;20.80;60.90;;;;;;2154167;59;21508;-67
2023/09/14 06:03:26;;;;;;;4.95;3.10;;;20.80;60.90;;;;;;2328498;58;21004;-70
2023/09/14 06:05:52;;;;;;;5.20;2.60;;;20.80;60.80;;;;;;2365275;58;20983;-69
2023/09/14 06:08:22;;;;;;;4.53;3.10;;;20.80;60.80;;;;;;2351941;58;20996;-68
2023/09/14 06:10:50;;;;;;;4.22;2.65;;;20.80;60.70;;;;;;2331902;58;20983;-68
2023/09/14 06:13:18;;;;;;;4.28;2.75;;;20.80;60.70;;;;;;2320196;58;21547;-69
2023/09/14 06:15:47;;;;;;;5.80;3.50;;;20.80;60.70;;;;;;2349974;58;22008;-67
2023/09/14 06:18:13;;;;;;;5.32;3.28;;;20.80;60.70;;;;;;2141730;59;21847;-70
2023/09/14 06:20:39;;;;;;;6.00;3.50;;;20.80;60.60;;;;;;2350710;58;21847;-69
2023/09/14 06:23:06;;;;;;;5.57;3.53;;;20.80;60.60;;;;;;2349546;58;20992;-68
2023/09/14 06:25:33;;;;;;;5.85;3.53;;;20.80;60.70;;;;;;2356350;58;20996;-68
2023/09/14 06:28:00;;;;;;;5.90;2.97;;;20.80;60.70;;;;;;2364647;58;21011;-68
2023/09/14 06:30:27;;;;;;;5.70;3.37;;;20.80;60.80;;;;;;2365641;58;21069;-68
2023/09/14 06:32:53;;;;;;;6.40;3.90;;;20.80;60.80;;;;;;2364218;58;21040;-67
2023/09/14 06:35:22;;;;;;;5.82;3.75;;;20.80;60.90;;;;;;2158759;59;21406;-68
2023/09/14 06:37:48;;;;;;;8.25;3.70;;;20.80;61.00;;;;;;2142092;59;20993;-69
2023/09/14 06:40:15;;;;;;;5.55;3.50;;;20.80;61.00;;;;;;2130979;59;21019;-69
2023/09/14 06:42:42;;;;;;;7.30;3.78;;;20.80;61.00;;;;;;2142666;59;21118;-67
2023/09/14 06:45:10;;;;;;;6.28;3.90;;;20.80;61.00;;;;;;2354166;58;21056;-70
2023/09/14 06:47:39;;;;;;;7.03;4.55;;;20.80;61.10;;;;;;2365901;58;21085;-70
2023/09/14 06:50:08;;;;;;;7.62;4.15;;;20.80;61.10;;;;;;2157640;59;20967;-69
2023/09/14 06:52:37;;;;;;;7.00;4.40;;;20.80;61.10;;;;;;2158343;59;21015;-70
2023/09/14 06:55:06;;;;;;;8.57;4.37;;;20.80;61.10;;;;;;2153602;59;21043;-69
2023/09/14 06:57:40;;;;;;;7.75;4.60;;;20.80;61.10;;;;;;2131829;59;20990;-70
2023/09/14 07:00:13;;;;;;;7.40;4.70;;;20.80;61.30;;;;;;2352887;58;21074;-71
2023/09/14 07:02:42;;;;;;;6.28;3.75;;;20.80;61.50;;;;;;2359996;58;20975;-70
2023/09/14 07:05:10;;;;;;;6.28;3.95;;;20.80;61.60;;;;;;2364562;58;21675;-71
2023/09/14 07:07:40;;;;;;;5.45;3.62;;;20.80;61.50;;;;;;2136754;59;21009;-70
2023/09/14 07:10:07;;;;;;;5.78;3.92;;;20.80;61.60;;;;;;2360501;58;21024;-70
2023/09/14 07:12:35;;;;;;;5.18;3.62;;;20.80;61.60;;;;;;2361463;58;21395;-70
2023/09/14 07:15:04;;;;;;;5.05;3.42;;;20.90;61.90;;;;;;2140306;60;21823;-69
2023/09/14 07:17:31;;;;;;;5.28;3.05;;;20.90;61.80;;;;;;2331808;59;20999;-70
2023/09/14 07:19:57;;;;;;;4.97;3.40;;;20.90;61.70;;;;;;2332543;58;21065;-69
2023/09/14 07:22:24;;;;;;;5.80;3.65;;;21.00;61.70;;;;;;2332731;59;21031;-70
2023/09/14 07:24:51;;;;;;;5.93;4.05;;;21.00;61.60;;;;;;2333478;59;20962;-70
2023/09/14 07:27:17;;;;;;;5.60;3.45;;;21.00;61.50;;;;;;2140113;59;21811;-71
2023/09/14 07:29:44;;;;;;;5.97;3.58;;;21.00;61.50;;;;;;2365296;58;21595;-71
2023/09/14 07:32:11;;;;;;;5.72;3.58;;;21.00;61.50;;;;;;2143764;60;21558;-71
2023/09/14 07:34:37;;;;;;;7.15;4.43;;;21.00;61.50;;;;;;2328537;59;21006;-68
2023/09/14 07:37:05;;;;;;;6.15;3.60;;;21.00;61.50;;;;;;2346682;58;21066;-70
2023/09/14 07:39:36;;;;;;;5.47;3.70;;;21.00;61.50;;;;;;2333823;58;21039;-69
2023/09/14 07:42:02;;;;;;;6.03;3.95;;;21.00;61.50;;;;;;2352720;58;20990;-70
2023/09/14 07:44:29;;;;;;;8.10;4.65;;;21.00;61.50;;;;;;2356907;58;20966;-70
2023/09/14 07:46:55;;;;;;;8.65;4.10;;;21.00;61.50;;;;;;2357014;58;21034;-68
2023/09/14 07:49:22;;;;;;;6.10;4.05;;;21.00;62.30;;;;;;2353309;58;20994;-68
2023/09/14 07:51:51;;;;;;;6.78;4.45;;;21.00;61.70;;;;;;2333083;58;21522;-67
2023/09/14 07:54:17;;;;;;;6.75;4.43;;;21.00;61.80;;;;;;2146592;59;21027;-69
2023/09/14 07:56:47;;;;;;;5.57;3.42;;;21.10;61.80;;;;;;2339336;58;21029;-70
2023/09/14 07:59:13;;;;;;;4.50;3.28;;;21.10;61.80;;;;;;2356356;58;21005;-71
2023/09/14 08:01:40;;;;;;;6.35;3.80;;;21.10;61.80;;;;;;2357357;58;20970;-70
2023/09/14 08:04:06;;;;;;;5.62;3.00;;;21.10;61.70;;;;;;2133925;60;21014;-69
2023/09/14 08:06:33;;;;;;;4.80;3.00;;;21.20;61.70;;;;;;2151222;59;21066;-70
2023/09/14 08:09:01;;;;;;;5.10;2.95;;;21.20;61.80;;;;;;2357302;58;21001;-70
2023/09/14 08:11:34;;;;;;;;;;;21.20;62.00;;;;;;2331454;59;21045;-69
2023/09/14 08:14:00;;;;;;;4.60;2.80;;;21.20;62.20;;;;;;2337862;58;20081;-70
2023/09/14 08:16:30;;;;;;;5.37;3.60;;;21.30;61.80;;;;;;2141267;59;21034;-71
2023/09/14 08:19:00;;;;;;;6.75;3.12;;;21.30;61.80;;;;;;2357777;58;21074;-69
2023/09/14 08:21:28;;;;;;;5.57;3.53;;;21.40;62.00;;;;;;2151941;59;21093;-69
2023/09/14 08:23:54;;;;;;;4.45;2.65;;;21.40;62.00;;;;;;2357297;58;21006;-70
2023/09/14 08:26:21;;;;;;;5.40;3.33;;;21.40;61.90;;;;;;2354136;58;20993;-68
2023/09/14 08:28:47;;;;;;;4.95;3.47;;;21.40;62.00;;;;;;2333228;58;21009;-70
2023/09/14 08:34:43;;;;;;;5.22;3.22;;;21.60;62.80;;;;;;2357240;58;21026;-69
2023/09/14 08:37:10;;;;;;;6.78;3.37;;;21.60;62.10;;;;;;2150540;59;20971;-69
2023/09/14 08:39:39;;;;;;;6.85;3.62;;;21.70;62.10;;;;;;2151543;59;21021;-68
2023/09/14 08:42:07;;;;;;;5.80;3.65;;;21.70;62.10;;;;;;2151617;59;21872;-67
2023/09/14 08:44:35;;;;;;;5.18;3.67;;;21.80;62.10;;;;;;2364282;58;20956;-69
2023/09/14 08:47:01;;;;;;;5.60;3.15;;;21.80;62.10;;;;;;2159307;59;21044;-70
2023/09/14 08:49:35;;;;;;;4.82;2.95;;;21.80;62.10;;;;;;2366448;58;21012;-68
2023/09/14 08:52:10;;;;;;;5.82;3.05;;;21.90;62.30;;;;;;2377378;58;20959;-67
2023/09/14 08:54:36;;;;;;;4.80;3.08;;;21.90;62.30;;;;;;2365429;58;20994;-69
2023/09/14 08:57:04;;;;;;;5.70;3.60;;;22.00;62.20;;;;;;2351814;58;20969;-69
2023/09/14 08:59:34;;;;;;;8.88;4.05;;;22.00;62.20;;;;;;2349833;58;20929;-69
2023/09/14 09:02:02;;;;;;;6.40;4.12;;;22.10;62.30;;;;;;2349359;58;20955;-69
2023/09/14 09:04:28;;;;;;;7.25;4.07;;;22.10;62.30;;;;;;2364885;58;21052;-70
2023/09/14 09:06:57;;;;;;;4.87;3.25;;;22.20;62.40;;;;;;2159297;60;20988;-71
2023/09/14 09:09:24;;;;;;;4.68;3.12;;;22.30;62.40;;;;;;2366318;58;21024;-72
2023/09/14 09:11:51;;;;;;;5.25;3.00;;;22.30;62.20;;;;;;2158995;60;20986;-71
2023/09/14 09:14:17;;;;;;;5.60;3.70;;;22.40;62.10;;;;;;2158678;60;21064;-71
2023/09/14 09:16:43;;;;;;;5.22;3.20;;;22.40;62.00;;;;;;2366088;58;21492;-70
2023/09/14 09:19:10;;;;;;;5.20;3.47;;;22.50;61.90;;;;;;2158765;60;21513;-70
2023/09/14 09:21:36;;;;;;;5.50;3.80;;;22.50;61.70;;;;;;2160791;59;21084;-70
2023/09/14 09:24:04;;;;;;;5.75;3.33;;;22.50;61.50;;;;;;2364820;58;21020;-70
2023/09/14 09:26:37;;;;;;;5.97;4.00;;;22.60;61.50;;;;;;2152574;59;21049;-70
2023/09/14 09:29:16;;;;;;;5.78;3.67;;;22.60;61.40;;;;;;2152999;59;21039;-70
2023/09/14 09:31:44;;;;;;;5.60;3.53;;;22.70;61.30;;;;;;2368695;58;21033;-69
2023/09/14 09:34:12;;;;;;;5.03;3.45;;;22.70;61.10;;;;;;2373718;58;21042;-68
2023/09/14 09:36:38;;;;;;;6.35;3.97;;;22.70;61.00;;;;;;2178022;59;21050;-69
2023/09/14 09:39:11;;;;;;;5.10;3.37;;;22.70;61.00;;;;;;2387813;58;20973;-70
2023/09/14 09:41:39;;;;;;;6.72;3.58;;;22.70;60.90;;;;;;2382771;58;21120;-69
2023/09/14 09:44:06;;;;;;;4.55;2.97;;;22.70;60.70;;;;;;2156002;59;21037;-70
2023/09/14 09:46:34;;;;;;;6.78;3.53;;;22.80;60.80;;;;;;2388820;58;21042;-69
2023/09/14 09:49:14;;;;;;;5.45;3.42;;;22.80;60.80;;;;;;2389363;58;21005;-70
2023/09/14 09:51:41;;;;;;;5.72;3.37;;;22.80;60.80;;;;;;2389144;58;21022;-70
2023/09/14 09:54:07;;;;;;;5.50;3.42;;;22.80;60.70;;;;;;2388713;58;20965;-68
2023/09/14 09:56:35;;;;;;;6.00;3.70;;;22.90;60.70;;;;;;2177662;59;20989;-72
2023/09/14 09:59:04;;;;;;;6.20;4.22;;;22.90;60.60;;;;;;2389396;58;21026;-71
2023/09/14 10:01:31;;;;;;;6.50;3.83;;;22.90;60.60;;;;;;2388335;58;20990;-72
2023/09/14 10:03:59;;;;;;;6.25;3.70;;;22.90;60.50;;;;;;2178075;59;20997;-71
2023/09/14 10:06:25;;;;;;;5.62;3.05;;;22.90;60.50;;;;;;2362072;58;21014;-71
2023/09/14 10:08:53;;;;;;;5.50;3.45;;;22.90;60.50;;;;;;2173883;59;20981;-69
2023/09/14 10:11:20;;;;;;;7.40;3.62;;;23.00;60.50;;;;;;2387545;58;21846;-70
2023/09/14 10:13:48;;;;;;;5.37;3.62;;;23.00;60.50;;;;;;2178899;59;20981;-71
2023/09/14 10:16:17;;;;;;;5.70;3.03;;;23.00;60.40;;;;;;2388506;58;20965;-69
2023/09/14 10:18:45;;;;;;;6.05;3.17;;;23.00;60.40;;;;;;2389225;58;20993;-70
2023/09/14 10:21:13;;;;;;;5.12;3.15;;;23.00;60.40;;;;;;2388422;58;21066;-71
2023/09/14 10:23:39;;;;;;;6.10;3.60;;;23.10;60.50;;;;;;2169035;59;21059;-71
2023/09/14 10:26:05;;;;;;;4.97;3.22;;;23.10;60.40;;;;;;2163423;59;21034;-68
2023/09/14 10:28:32;;;;;;;5.30;2.80;;;23.10;60.40;;;;;;2177496;59;20997;-68
2023/09/14 10:30:59;;;;;;;5.15;3.15;;;23.10;60.30;;;;;;2389421;58;20965;-68
2023/09/14 10:33:26;;;;;;;4.70;2.80;;;23.10;60.10;;;;;;2388399;58;21048;-68
2023/09/14 10:35:53;;;;;;;6.43;3.37;;;23.00;60.20;;;;;;2176017;59;21023;-69
2023/09/14 10:38:22;;;;;;;4.82;3.22;;;23.20;60.40;;;;;;2388989;58;20982;-68
2023/09/14 10:40:48;;;;;;;6.62;3.97;;;23.20;60.40;;;;;;2388691;58;20989;-70
2023/09/14 10:43:15;;;;;;;4.43;2.90;;;23.20;60.50;;;;;;2387148;58;21435;-68
2023/09/14 10:45:43;;;;;;;4.85;3.05;;;23.30;60.70;;;;;;2152903;59;21089;-68
2023/09/14 10:48:11;;;;;;;5.20;3.58;;;23.40;60.80;;;;;;2387770;58;20981;-66
2023/09/14 10:51:09;;;;;;;6.60;4.45;;;23.40;60.70;;;;;;2389427;58;21546;-68
2023/09/14 10:53:36;;;;;;;5.45;3.42;;;23.40;60.20;;;;;;2388966;58;20997;-68
2023/09/14 10:56:02;;;;;;;5.20;3.60;;;23.50;60.30;;;;;;2390969;58;21049;-70
2023/09/14 10:58:42;;;;;;;5.90;3.60;;;23.50;60.20;;;;;;2179128;59;21242;-70
2023/09/14 11:01:12;;;;;;;6.00;4.07;;;23.50;60.10;;;;;;2389954;58;21061;-68
2023/09/14 11:04:13;;;;;;;7.57;4.12;;;23.50;60.00;;;;;;2156822;59;20992;-68
2023/09/14 11:06:50;;;;;;;6.35;3.80;;;23.60;60.00;;;;;;2160440;59;21508;-66
2023/09/14 11:09:20;;;;;;;7.53;5.10;;;23.60;60.00;;;;;;2169829;59;21015;-67
2023/09/14 11:11:50;;;;;;;8.25;5.40;;;23.60;60.00;;;;;;2357583;58;21518;-64
2023/09/14 11:14:17;;;;;;;7.95;5.55;;;23.60;59.90;;;;;;2165975;59;21029;-65
2023/09/14 11:16:49;;;;;;;5.32;3.53;;;23.70;59.90;;;;;;2154944;59;21089;-68
2023/09/14 11:22:50;;;;;;;6.87;4.00;;;23.70;60.20;;;;;;2155418;59;21843;-64
2023/09/14 11:25:36;;;;;;;8.10;4.57;;;23.80;60.20;;;;;;2389674;58;20982;-67
2023/09/14 11:28:07;;;;;;;5.55;3.45;;;23.80;60.40;;;;;;2178155;59;21137;-65
2023/09/14 11:30:42;;;;;;;7.20;4.70;;;23.80;60.30;;;;;;2178190;59;20977;-68
2023/09/14 11:33:09;;;;;;;7.00;4.05;;;23.90;60.20;;;;;;2389023;58;21049;-66
2023/09/14 11:35:39;;;;;;;7.25;4.45;;;23.90;61.10;;;;;;2177767;59;21514;-67
2023/09/14 11:38:15;;;;;;;7.10;3.85;;;23.90;60.30;;;;;;2389416;58;21330;-70
2023/09/14 11:40:43;;;;;;;6.32;4.37;;;24.00;60.30;;;;;;2388950;58;20982;-69
2023/09/14 11:43:20;;;;;;;7.00;3.97;;;24.00;60.50;;;;;;2177746;59;21017;-70
2023/09/14 11:46:00;;;;;;;6.62;3.72;;;24.10;60.80;;;;;;2388867;58;21017;-70
2023/09/14 11:48:34;;;;;;;5.18;3.62;;;24.10;60.60;;;;;;2177107;59;21005;-69
2023/09/14 11:51:04;;;;;;;5.25;3.53;;;24.20;60.80;;;;;;2389269;58;21037;-69
2023/09/14 11:53:35;;;;;;;5.87;3.33;;;24.30;60.70;;;;;;2177637;59;20968;-69
2023/09/14 11:56:01;;;;;;;5.18;3.62;;;24.40;60.40;;;;;;2388876;58;21077;-70
2023/09/14 11:58:34;;;;;;;5.45;3.28;;;24.40;60.30;;;;;;2388437;58;21030;-69
2023/09/14 12:01:01;;;;;;;3.92;2.90;;;24.50;60.30;;;;;;2388627;58;20982;-66
2023/09/14 12:03:30;;;;;;;5.32;3.12;;;24.60;60.40;;;;;;2389071;58;21514;-67
2023/09/14 12:05:57;;;;;;;6.62;4.12;;;24.60;60.10;;;;;;2178013;59;21009;-67
2023/09/14 12:08:24;;;;;;;4.37;2.97;;;24.70;59.80;;;;;;2389458;58;20958;-67
2023/09/14 12:10:52;;;;;;;4.25;2.90;;;24.70;59.60;;;;;;2178040;59;21033;-67
2023/09/14 12:13:20;;;;;;;4.55;2.90;;;24.80;59.70;;;;;;2389406;58;21026;-69
2023/09/14 12:15:47;;;;;;;4.50;2.97;;;24.80;59.60;;;;;;2178124;59;20977;-67
2023/09/14 12:18:16;;;;;;;4.68;3.15;;;24.90;59.50;;;;;;2389183;58;20958;-68
2023/09/14 12:20:44;;;;;;;6.18;3.47;;;25.00;59.50;;;;;;2177970;59;21018;-67
2023/09/14 12:23:11;;;;;;;5.72;3.20;;;25.00;59.30;;;;;;2177775;59;21521;-68
2023/09/14 12:25:38;;;;;;;4.65;2.60;;;25.00;59.20;;;;;;2389025;58;20985;-67
2023/09/14 12:28:07;;;;;;;3.70;2.42;;;25.10;59.20;;;;;;2389234;58;21475;-69
2023/09/14 12:30:33;;;;;;;5.00;3.00;;;25.10;59.30;;;;;;2351909;58;2270649;-67
2023/09/14 12:33:02;;;;;;;4.18;2.47;;;25.10;59.20;;;;;;2388271;58;21006;-68
2023/09/14 12:35:29;;;;;;;3.67;2.37;;;25.20;59.10;;;;;;2172996;59;21027;-67
2023/09/14 12:38:04;;;;;;;4.40;2.75;;;25.20;58.90;;;;;;2159162;59;20985;-67
2023/09/14 12:40:35;;;;;;;3.72;2.37;;;25.30;58.80;;;;;;2388579;58;21014;-70
2023/09/14 12:43:05;;;;;;;4.07;2.57;;;25.30;58.70;;;;;;2177722;59;21014;-68
2023/09/14 12:45:34;;;;;;;4.95;2.55;;;25.40;58.70;;;;;;2388412;58;21545;-69
2023/09/14 12:48:03;;;;;;;3.72;2.25;;;25.50;58.60;;;;;;2176912;59;21890;-67
2023/09/14 12:50:30;;;;;;;3.72;2.37;;;25.50;58.50;;;;;;2388937;58;21399;-69
2023/09/14 12:52:57;;;;;;;4.18;2.08;;;25.60;58.40;;;;;;2388973;58;21005;-67
2023/09/14 12:55:25;;;;;;;3.50;2.25;;;25.60;58.30;;;;;;2178030;59;21005;-68
2023/09/14 12:57:52;;;;;;;4.32;2.12;;;25.70;58.20;;;;;;2388647;58;20983;-69
2023/09/14 13:00:27;;;;;;;4.03;2.22;;;25.70;58.10;;;;;;2177976;59;21442;-67
2023/09/14 13:02:54;;;;;;;4.18;2.42;;;25.80;57.80;;;;;;2177937;59;20969;-66
2023/09/14 13:05:23;;;;;;;4.25;2.15;;;25.80;57.80;;;;;;2177328;59;21025;-67
2023/09/14 13:07:51;;;;;;;3.28;1.83;;;25.90;57.70;;;;;;2388211;58;21825;-65